createdAt,value
2018-10-04T00:00:47.894Z,66.02
2018-10-04T00:03:16.531Z,65.63
2018-10-04T00:05:45.166Z,65.67
2018-10-04T00:08:13.968Z,66.23
2018-10-04T00:10:42.763Z,65.78
2018-10-04T00:13:11.489Z,65.88
2018-10-04T00:15:40.100Z,65.92
2018-10-04T00:18:08.741Z,66.35
2018-10-04T00:20:37.290Z,66.61
2018-10-04T00:23:05.881Z,66.53
2018-10-04T00:25:34.524Z,66.85
2018-10-04T00:28:03.590Z,66.78
2018-10-04T00:30:32.323Z,66.98
2018-10-04T00:33:01.000Z,67.20
2018-10-04T00:35:29.659Z,67.08
2018-10-04T00:37:58.206Z,67.48
2018-10-04T00:40:26.698Z,67.51
2018-10-04T00:42:55.262Z,67.49
2018-10-04T00:45:23.825Z,68.16
2018-10-04T00:47:52.432Z,68.20
2018-10-04T00:50:21.027Z,68.62
2018-10-04T00:52:49.646Z,68.83
2018-10-04T00:55:18.258Z,69.35
2018-10-04T00:57:46.872Z,69.44
2018-10-04T01:00:15.525Z,69.67
2018-10-04T01:02:44.633Z,70.04
2018-10-04T01:05:13.509Z,70.20
2018-10-04T01:07:43.555Z,70.26
2018-10-04T01:10:13.288Z,70.11
2018-10-04T01:12:42.185Z,70.45
2018-10-04T01:15:11.051Z,70.68
2018-10-04T01:17:39.877Z,70.71
2018-10-04T01:22:52.311Z,71.28
2018-10-04T01:25:21.233Z,71.32
2018-10-04T01:27:50.115Z,71.42
2018-10-04T01:30:19.116Z,71.66
2018-10-04T01:32:47.873Z,71.67
2018-10-04T01:35:16.849Z,71.68
2018-10-04T01:37:45.637Z,71.99
2018-10-04T01:40:14.636Z,71.61
2018-10-04T01:42:43.541Z,71.88
2018-10-04T01:45:12.248Z,71.72
2018-10-04T01:47:40.933Z,71.75
2018-10-04T01:50:09.633Z,71.61
2018-10-04T01:52:38.218Z,71.37
2018-10-04T01:55:06.999Z,71.61
2018-10-04T01:57:35.648Z,71.82
2018-10-04T02:00:04.404Z,71.78
2018-10-04T02:02:33.223Z,71.46
2018-10-04T02:05:02.568Z,71.43
2018-10-04T02:07:31.359Z,71.72
2018-10-04T02:10:00.136Z,71.68
2018-10-04T02:12:28.678Z,71.56
2018-10-04T02:14:57.323Z,71.64
2018-10-04T02:17:26.078Z,71.33
2018-10-04T02:19:54.746Z,71.21
2018-10-04T02:22:23.504Z,71.42
2018-10-04T02:24:52.223Z,71.00
2018-10-04T02:27:21.162Z,71.29
2018-10-04T02:29:49.706Z,71.24
2018-10-04T02:32:18.360Z,71.38
2018-10-04T02:34:46.893Z,70.98
2018-10-04T02:37:15.781Z,70.55
2018-10-04T02:39:44.296Z,70.77
2018-10-04T02:42:12.942Z,70.24
2018-10-04T02:44:41.627Z,70.33
2018-10-04T02:47:10.247Z,70.30
2018-10-04T02:49:38.847Z,70.28
2018-10-04T02:52:08.404Z,71.18
2018-10-04T02:54:37.012Z,71.37
2018-10-04T02:57:05.595Z,71.10
2018-10-04T02:59:34.170Z,70.76
2018-10-04T03:02:03.282Z,70.43
2018-10-04T03:04:31.855Z,70.16
2018-10-04T03:07:07.307Z,70.03
2018-10-04T03:09:35.999Z,70.06
2018-10-04T03:12:04.564Z,69.95
2018-10-04T03:14:33.276Z,70.00
2018-10-04T03:17:02.025Z,70.03
2018-10-04T03:19:30.632Z,70.20
2018-10-04T03:21:59.285Z,70.16
2018-10-04T03:24:27.907Z,70.32
2018-10-04T03:26:56.561Z,70.04
2018-10-04T03:29:25.144Z,70.35
2018-10-04T03:31:53.856Z,70.01
2018-10-04T03:34:22.481Z,70.31
2018-10-04T03:36:51.133Z,70.13
2018-10-04T03:39:19.775Z,69.95
2018-10-04T03:41:48.481Z,70.36
2018-10-04T03:44:17.258Z,70.11
2018-10-04T03:46:45.870Z,70.28
2018-10-04T03:49:15.353Z,70.11
2018-10-04T03:51:43.915Z,70.44
2018-10-04T03:54:12.618Z,70.09
2018-10-04T03:56:41.297Z,70.14
2018-10-04T03:59:09.962Z,70.10
2018-10-04T04:01:38.649Z,70.07
2018-10-04T04:04:07.494Z,70.19
2018-10-04T04:06:36.497Z,70.04
2018-10-04T04:09:07.300Z,70.12
2018-10-04T04:11:36.260Z,70.02
2018-10-04T04:14:06.494Z,69.89
2018-10-04T04:16:35.327Z,70.27
2018-10-04T04:19:03.973Z,70.13
2018-10-04T04:21:32.593Z,70.13
2018-10-04T04:24:01.980Z,70.09
2018-10-04T04:26:30.616Z,70.50
2018-10-04T04:28:59.302Z,70.32
2018-10-04T04:31:27.926Z,70.42
2018-10-04T04:33:56.600Z,70.26
2018-10-04T04:36:25.199Z,70.43
2018-10-04T04:38:53.884Z,70.16
2018-10-04T04:41:22.612Z,70.28
2018-10-04T04:43:51.243Z,70.50
2018-10-04T04:46:20.025Z,70.35
2018-10-04T04:48:48.793Z,70.46
2018-10-04T04:51:17.533Z,70.22
2018-10-04T04:53:46.207Z,70.45
2018-10-04T04:56:14.824Z,70.39
2018-10-04T04:58:43.431Z,70.68
2018-10-04T05:01:12.013Z,70.56
2018-10-04T05:03:40.668Z,70.91
2018-10-04T05:06:09.344Z,70.88
2018-10-04T05:08:37.918Z,71.29
2018-10-04T05:11:06.583Z,71.84
2018-10-04T05:13:35.340Z,72.22
2018-10-04T05:16:04.278Z,73.12
2018-10-04T05:18:33.075Z,73.41
2018-10-04T05:21:02.549Z,73.83
2018-10-04T05:23:31.262Z,74.26
2018-10-04T05:25:59.915Z,74.46
2018-10-04T05:28:28.638Z,74.91
2018-10-04T05:30:57.424Z,75.12
2018-10-04T05:33:26.103Z,75.25
2018-10-04T05:35:54.713Z,75.66
2018-10-04T05:38:23.283Z,75.41
2018-10-04T05:40:51.941Z,75.52
2018-10-04T05:43:20.544Z,76.53
2018-10-04T05:45:49.235Z,76.15
2018-10-04T05:48:17.783Z,76.62
2018-10-04T05:50:46.363Z,76.55
2018-10-04T05:53:14.995Z,76.32
2018-10-04T05:55:43.663Z,76.03
2018-10-04T05:58:12.233Z,76.32
2018-10-04T06:00:41.962Z,76.00
2018-10-04T06:03:10.657Z,76.58
2018-10-04T06:05:39.416Z,76.01
2018-10-04T06:08:08.196Z,76.03
2018-10-04T06:10:37.178Z,76.12
2018-10-04T06:13:05.928Z,76.20
2018-10-04T06:15:34.729Z,76.41
2018-10-04T06:18:03.495Z,76.37
2018-10-04T06:20:36.133Z,76.24
2018-10-04T06:23:05.068Z,76.47
2018-10-04T06:25:33.841Z,76.01
2018-10-04T06:28:02.686Z,76.31
2018-10-04T06:30:31.393Z,76.72
2018-10-04T06:32:59.982Z,76.72
2018-10-04T06:35:28.671Z,76.61
2018-10-04T06:37:57.349Z,76.65
2018-10-04T06:40:25.980Z,76.71
2018-10-04T06:42:54.604Z,77.05
2018-10-04T06:45:23.168Z,77.03
2018-10-04T06:47:51.794Z,77.01
2018-10-04T06:50:20.491Z,76.88
2018-10-04T06:52:49.165Z,77.07
2018-10-04T06:55:17.946Z,77.44
2018-10-04T06:57:46.704Z,77.38
2018-10-04T07:00:16.184Z,77.54
2018-10-04T07:02:44.868Z,77.50
2018-10-04T07:05:13.487Z,77.89
2018-10-04T07:07:42.125Z,78.34
2018-10-04T07:10:10.949Z,78.32
2018-10-04T07:12:39.576Z,79.30
2018-10-04T07:15:08.315Z,79.24
2018-10-04T07:17:37.029Z,79.08
2018-10-04T07:20:06.021Z,79.03
2018-10-04T07:22:34.714Z,78.93
2018-10-04T07:25:03.604Z,79.35
2018-10-04T07:27:32.482Z,78.86
2018-10-04T07:30:02.528Z,79.21
2018-10-04T07:32:31.190Z,79.37
2018-10-04T07:34:59.972Z,79.33
2018-10-04T07:37:29.312Z,79.24
2018-10-04T07:39:58.057Z,79.12
2018-10-04T07:42:26.793Z,78.99
2018-10-04T07:44:55.704Z,79.13
2018-10-04T07:47:24.318Z,79.05
2018-10-04T07:49:53.106Z,78.33
2018-10-04T07:52:21.843Z,78.22
2018-10-04T07:54:50.393Z,78.12
2018-10-04T07:57:19.114Z,78.06
2018-10-04T07:59:47.818Z,78.12
2018-10-04T08:02:16.496Z,77.71
2018-10-04T08:04:45.219Z,77.92
2018-10-04T08:07:13.870Z,78.00
2018-10-04T08:09:42.711Z,78.03
2018-10-04T08:12:11.715Z,77.87
2018-10-04T08:14:40.290Z,77.89
2018-10-04T08:17:09.020Z,77.99
2018-10-04T08:19:37.748Z,78.46
2018-10-04T08:22:06.427Z,78.31
2018-10-04T08:24:35.162Z,78.13
2018-10-04T08:27:03.966Z,78.14
2018-10-04T08:29:32.634Z,77.83
2018-10-04T08:32:01.609Z,77.57
2018-10-04T08:34:30.432Z,78.41
2018-10-04T08:36:59.404Z,77.94
2018-10-04T08:39:28.275Z,77.92
2018-10-04T08:41:57.062Z,77.25
2018-10-04T08:44:25.784Z,78.01
2018-10-04T08:46:54.560Z,78.03
2018-10-04T08:49:23.404Z,78.22
2018-10-04T08:51:53.533Z,78.14
2018-10-04T08:54:27.440Z,77.89
2018-10-04T08:56:57.298Z,78.36
2018-10-04T08:59:26.233Z,78.27
2018-10-04T09:01:55.690Z,78.49
2018-10-04T09:04:24.637Z,78.38
2018-10-04T09:06:53.257Z,78.99
2018-10-04T09:09:22.726Z,79.05
2018-10-04T09:11:51.369Z,79.42
2018-10-04T09:14:20.095Z,79.06
2018-10-04T09:16:48.942Z,79.12
2018-10-04T09:19:17.645Z,78.90
2018-10-04T09:21:46.378Z,79.25
2018-10-04T09:24:15.038Z,79.28
2018-10-04T09:26:43.836Z,78.77
2018-10-04T09:29:13.451Z,78.85
2018-10-04T09:31:46.982Z,78.70
2018-10-04T09:34:15.613Z,79.02
2018-10-04T09:36:44.408Z,78.54
2018-10-04T09:39:13.225Z,78.77
2018-10-04T09:41:41.935Z,79.00
2018-10-04T09:44:10.823Z,78.79
2018-10-04T09:46:39.400Z,78.38
2018-10-04T09:49:08.122Z,78.13
2018-10-04T09:52:07.441Z,78.22
2018-10-04T09:54:41.187Z,78.15
2018-10-04T09:57:15.133Z,77.89
2018-10-04T09:59:43.867Z,77.78
2018-10-04T10:02:15.056Z,77.21
2018-10-04T10:04:43.674Z,76.97
2018-10-04T10:07:12.396Z,76.73
2018-10-04T10:09:41.135Z,76.50
2018-10-04T10:12:09.725Z,76.79
2018-10-04T10:14:38.390Z,76.05
2018-10-04T10:17:07.150Z,75.99
2018-10-04T10:19:35.907Z,75.83
2018-10-04T10:22:04.432Z,75.81
2018-10-04T10:24:33.108Z,75.52
2018-10-04T10:27:02.643Z,75.58
2018-10-04T10:29:31.638Z,75.37
2018-10-04T10:32:00.283Z,75.03
2018-10-04T10:34:29.145Z,74.90
2018-10-04T10:36:58.011Z,75.17
2018-10-04T10:39:26.834Z,74.73
2018-10-04T10:41:55.476Z,74.78
2018-10-04T10:44:24.083Z,75.16
2018-10-04T10:46:52.694Z,74.58
2018-10-04T10:49:21.386Z,74.40
2018-10-04T10:51:50.450Z,74.66
2018-10-04T10:54:19.065Z,74.35
2018-10-04T10:56:47.923Z,74.51
2018-10-04T10:59:16.605Z,74.36
2018-10-04T11:01:45.326Z,73.43
2018-10-04T11:04:14.056Z,72.46
2018-10-04T11:06:42.779Z,72.89
2018-10-04T11:09:11.781Z,73.02
2018-10-04T11:11:40.779Z,73.47
2018-10-04T11:14:09.760Z,72.93
2018-10-04T11:16:38.459Z,72.83
2018-10-04T11:19:07.301Z,72.85
2018-10-04T11:21:35.955Z,72.80
2018-10-04T11:24:04.733Z,72.72
2018-10-04T11:26:33.388Z,72.92
2018-10-04T11:29:02.619Z,72.99
2018-10-04T11:31:31.290Z,72.63
2018-10-04T11:34:00.078Z,73.14
2018-10-04T11:36:29.306Z,72.68
2018-10-04T11:38:58.035Z,72.07
2018-10-04T11:41:26.764Z,72.45
2018-10-04T11:43:58.270Z,72.32
2018-10-04T11:46:28.195Z,72.14
2018-10-04T11:48:56.870Z,72.23
2018-10-04T11:51:25.666Z,72.09
2018-10-04T11:53:54.469Z,72.07
2018-10-04T11:56:23.166Z,72.20
2018-10-04T11:58:51.882Z,72.03
2018-10-04T12:01:20.708Z,72.19
2018-10-04T12:03:49.251Z,72.45
2018-10-04T12:06:17.900Z,72.15
2018-10-04T12:08:46.464Z,71.33
2018-10-04T12:11:15.252Z,71.91
2018-10-04T12:13:43.879Z,71.85
2018-10-04T12:16:12.689Z,71.54
2018-10-04T12:18:41.544Z,71.34
2018-10-04T12:21:10.140Z,71.01
2018-10-04T12:23:38.830Z,71.08
2018-10-04T12:26:07.546Z,71.19
2018-10-04T12:28:36.111Z,71.27
2018-10-04T12:31:05.138Z,70.48
2018-10-04T12:33:33.726Z,70.28
2018-10-04T12:36:02.923Z,69.48
2018-10-04T12:38:31.485Z,69.86
2018-10-04T12:41:00.231Z,70.19
2018-10-04T12:43:28.917Z,69.78
2018-10-04T12:45:57.568Z,69.60
2018-10-04T12:48:26.309Z,69.52
2018-10-04T12:50:54.986Z,69.50
2018-10-04T12:53:23.726Z,68.32
2018-10-04T12:55:52.432Z,68.58
2018-10-04T12:58:21.123Z,67.90
2018-10-04T13:00:49.890Z,67.21
2018-10-04T13:03:18.593Z,67.20
2018-10-04T13:05:47.315Z,66.31
2018-10-04T13:08:15.956Z,65.63
2018-10-04T13:10:44.635Z,65.42
2018-10-04T13:13:13.320Z,66.17
2018-10-04T13:15:42.011Z,67.01
2018-10-04T13:18:10.705Z,66.42
2018-10-04T13:20:39.384Z,67.15
2018-10-04T13:23:09.164Z,67.36
2018-10-04T13:25:38.076Z,67.69
2018-10-04T13:28:06.950Z,67.10
2018-10-04T13:30:35.656Z,66.72
2018-10-04T13:33:04.387Z,66.10
2018-10-04T13:35:33.050Z,66.89
2018-10-04T13:38:01.825Z,66.81
2018-10-04T13:40:30.639Z,66.31
2018-10-04T13:42:59.387Z,65.62
2018-10-04T13:45:28.133Z,66.77
2018-10-04T13:47:56.784Z,66.76
2018-10-04T13:50:25.577Z,66.73
2018-10-04T13:52:54.315Z,67.37
2018-10-04T13:55:23.340Z,67.38
2018-10-04T13:57:52.038Z,67.09
2018-10-04T14:00:20.755Z,67.17
2018-10-04T14:02:49.360Z,67.04
2018-10-04T14:05:18.036Z,66.89
2018-10-04T14:07:46.722Z,66.67
2018-10-04T14:10:15.497Z,66.80
2018-10-04T14:12:44.303Z,66.63
2018-10-04T14:15:13.333Z,66.44
2018-10-04T14:17:42.346Z,66.92
2018-10-04T14:20:11.154Z,65.88
2018-10-04T14:22:39.894Z,65.98
2018-10-04T14:25:08.796Z,65.71
2018-10-04T14:27:37.384Z,66.01
2018-10-04T14:30:06.470Z,66.03
2018-10-04T14:32:35.472Z,66.15
2018-10-04T14:35:04.506Z,67.15
2018-10-04T14:37:33.275Z,66.95
2018-10-04T14:40:02.304Z,67.89
2018-10-04T14:42:31.193Z,67.77
2018-10-04T14:44:59.958Z,67.97
2018-10-04T14:47:28.696Z,67.84
2018-10-04T14:49:57.476Z,67.70
2018-10-04T14:52:26.497Z,68.21
2018-10-04T14:54:55.341Z,67.84
2018-10-04T14:57:24.305Z,68.06
2018-10-04T14:59:52.926Z,67.46
2018-10-04T15:02:21.652Z,67.01
2018-10-04T15:04:50.485Z,66.37
2018-10-04T15:07:19.572Z,66.54
2018-10-04T15:09:48.216Z,66.47
2018-10-04T15:12:16.936Z,66.90
2018-10-04T15:14:45.886Z,67.09
2018-10-04T15:17:14.590Z,67.06
2018-10-04T15:19:43.292Z,67.05
2018-10-04T15:22:11.937Z,67.48
2018-10-04T15:24:40.647Z,67.58
2018-10-04T15:27:09.320Z,67.54
2018-10-04T15:29:37.937Z,67.99
2018-10-04T15:32:06.753Z,68.07
2018-10-04T15:34:35.388Z,68.04
2018-10-04T15:37:04.074Z,68.40
2018-10-04T15:39:32.900Z,68.89
2018-10-04T15:42:01.663Z,68.93
2018-10-04T15:44:30.331Z,68.96
2018-10-04T15:46:59.386Z,69.15
2018-10-04T15:49:27.988Z,69.24
2018-10-04T15:51:56.841Z,69.35
2018-10-04T15:54:25.487Z,69.71
2018-10-04T15:56:54.253Z,69.43
2018-10-04T15:59:23.062Z,70.04
2018-10-04T16:01:51.712Z,69.61
2018-10-04T16:04:20.356Z,69.90
2018-10-04T16:06:49.216Z,69.99
2018-10-04T16:09:17.977Z,70.38
2018-10-04T16:11:47.445Z,70.29
2018-10-04T16:14:16.278Z,70.07
2018-10-04T16:16:45.033Z,70.43
2018-10-04T16:19:13.751Z,70.53
2018-10-04T16:21:42.337Z,70.98
2018-10-04T16:24:10.897Z,70.56
2018-10-04T16:26:39.598Z,71.14
2018-10-04T16:29:08.213Z,71.08
2018-10-04T16:31:37.290Z,71.52
2018-10-04T16:34:05.960Z,71.36
2018-10-04T16:36:34.505Z,71.50
2018-10-04T16:39:03.883Z,71.03
2018-10-04T16:41:32.538Z,71.52
2018-10-04T16:44:01.839Z,71.60
2018-10-04T16:46:30.457Z,71.64
2018-10-04T16:48:59.189Z,71.40
2018-10-04T16:51:27.929Z,71.76
2018-10-04T16:53:56.619Z,72.28
2018-10-04T16:56:25.194Z,72.09
2018-10-04T16:58:53.852Z,72.79
2018-10-04T17:01:22.517Z,72.82
2018-10-04T17:03:51.190Z,72.51
2018-10-04T17:06:19.931Z,72.68
2018-10-04T17:08:48.563Z,72.90
2018-10-04T17:11:17.223Z,73.10
2018-10-04T17:13:46.076Z,72.64
2018-10-04T17:16:14.999Z,73.38
2018-10-04T17:18:43.884Z,73.30
2018-10-04T17:21:12.514Z,73.48
2018-10-04T17:23:41.361Z,73.81
2018-10-04T17:26:10.105Z,73.64
2018-10-04T17:28:38.981Z,73.41
2018-10-04T17:31:07.765Z,73.22
2018-10-04T17:33:36.645Z,73.21
2018-10-04T17:36:05.240Z,73.59
2018-10-04T17:38:33.969Z,73.41
2018-10-04T17:41:02.756Z,73.06
2018-10-04T17:43:31.514Z,73.28
2018-10-04T17:46:00.293Z,73.17
2018-10-04T17:48:28.982Z,73.14
2018-10-04T17:50:57.585Z,73.10
2018-10-04T17:53:26.275Z,72.95
2018-10-04T17:55:54.914Z,73.41
2018-10-04T17:58:23.752Z,73.39
2018-10-04T18:00:52.426Z,73.29
2018-10-04T18:03:21.313Z,73.33
2018-10-04T18:05:50.148Z,73.11
2018-10-04T18:08:18.936Z,73.30
2018-10-04T18:10:47.537Z,73.19
2018-10-04T18:13:16.170Z,72.96
2018-10-04T18:15:44.923Z,72.99
2018-10-04T18:18:15.215Z,73.40
2018-10-04T18:20:43.900Z,73.27
2018-10-04T18:23:12.505Z,73.13
2018-10-04T18:25:41.501Z,73.47
2018-10-04T18:28:10.207Z,73.19
2018-10-04T18:30:38.931Z,73.05
2018-10-04T18:33:07.725Z,73.20
2018-10-04T18:35:36.472Z,73.01
2018-10-04T18:38:05.232Z,73.37
2018-10-04T18:40:33.926Z,73.32
2018-10-04T18:43:03.771Z,72.61
2018-10-04T18:45:32.530Z,73.26
2018-10-04T18:48:01.842Z,72.60
2018-10-04T18:50:30.596Z,72.73
2018-10-04T18:52:59.216Z,72.38
2018-10-04T18:55:27.870Z,72.35
2018-10-04T18:57:56.586Z,72.39
2018-10-04T19:00:25.333Z,72.33
2018-10-04T19:02:54.161Z,72.65
2018-10-04T19:05:23.135Z,72.31
2018-10-04T19:07:51.844Z,72.41
2018-10-04T19:10:21.113Z,72.24
2018-10-04T19:12:49.811Z,72.18
2018-10-04T19:15:18.549Z,72.43
2018-10-04T19:17:47.175Z,72.29
2018-10-04T19:20:16.025Z,72.53
2018-10-04T19:22:44.614Z,72.38
2018-10-04T19:25:13.353Z,72.47
2018-10-04T19:27:42.012Z,72.43
2018-10-04T19:30:10.676Z,72.72
2018-10-04T19:32:39.353Z,72.85
2018-10-04T19:35:08.053Z,73.12
2018-10-04T19:37:36.666Z,73.26
2018-10-04T19:40:05.634Z,72.90
2018-10-04T19:42:34.294Z,73.05
2018-10-04T19:45:03.625Z,72.80
2018-10-04T19:47:32.469Z,73.37
2018-10-04T19:50:02.224Z,73.16
2018-10-04T19:52:31.192Z,73.38
2018-10-04T19:54:59.877Z,73.43
2018-10-04T19:57:28.483Z,73.32
2018-10-04T19:59:57.083Z,73.55
2018-10-04T20:02:25.691Z,73.63
2018-10-04T20:04:54.559Z,73.57
2018-10-04T20:07:23.432Z,73.65
2018-10-04T20:09:52.379Z,73.78
2018-10-04T20:12:21.070Z,74.25
2018-10-04T20:14:49.720Z,73.66
2018-10-04T20:17:18.364Z,74.00
2018-10-04T20:19:47.059Z,73.88
2018-10-04T20:22:22.453Z,74.00
2018-10-04T20:24:51.133Z,73.95
2018-10-04T20:27:19.978Z,74.14
2018-10-04T20:29:48.690Z,74.00
2018-10-04T20:32:17.673Z,73.87
2018-10-04T20:34:46.339Z,73.53
2018-10-04T20:37:15.128Z,73.65
2018-10-04T20:39:43.936Z,73.48
2018-10-04T20:42:12.724Z,73.07
2018-10-04T20:44:41.526Z,73.05
2018-10-04T20:47:10.162Z,73.30
2018-10-04T20:49:38.861Z,72.46
2018-10-04T20:52:07.742Z,72.65
2018-10-04T20:54:36.583Z,72.84
2018-10-04T20:57:05.297Z,72.79
2018-10-04T20:59:34.201Z,72.81
2018-10-04T21:02:03.490Z,72.61
2018-10-04T21:04:32.276Z,72.85
2018-10-04T21:07:00.893Z,72.24
2018-10-04T21:09:29.833Z,72.15
2018-10-04T21:11:58.501Z,72.45
2018-10-04T21:14:27.192Z,72.83
2018-10-04T21:16:55.838Z,72.81
2018-10-04T21:19:25.182Z,72.75
2018-10-04T21:21:53.859Z,73.06
2018-10-04T21:24:22.604Z,73.25
2018-10-04T21:26:51.261Z,73.80
2018-10-04T21:29:19.842Z,73.73
2018-10-04T21:31:48.568Z,73.48
2018-10-04T21:34:17.425Z,73.49
2018-10-04T21:36:46.029Z,73.70
2018-10-04T21:39:14.730Z,74.00
2018-10-04T21:41:43.530Z,73.75
2018-10-04T21:44:12.241Z,73.45
2018-10-04T21:46:40.959Z,73.45
2018-10-04T21:49:09.640Z,73.48
2018-10-04T21:51:38.362Z,73.48
2018-10-04T21:54:07.389Z,73.23
2018-10-04T21:56:36.003Z,73.81
2018-10-04T21:59:04.791Z,74.02
2018-10-04T22:01:33.453Z,74.32
2018-10-04T22:04:02.862Z,73.74
2018-10-04T22:06:31.493Z,73.74
2018-10-04T22:09:00.070Z,73.39
2018-10-04T22:11:28.753Z,73.35
2018-10-04T22:13:57.336Z,73.30
2018-10-04T22:16:26.066Z,73.34
2018-10-04T22:18:54.684Z,73.15
2018-10-04T22:21:23.452Z,73.10
2018-10-04T22:23:52.156Z,72.97
2018-10-04T22:26:20.869Z,72.92
2018-10-04T22:28:49.396Z,72.64
2018-10-04T22:31:18.091Z,72.70
2018-10-04T22:33:46.689Z,72.66
2018-10-04T22:36:15.274Z,72.60
2018-10-04T22:38:43.777Z,72.53
2018-10-04T22:41:12.446Z,72.50
2018-10-04T22:43:41.001Z,72.36
2018-10-04T22:46:09.615Z,72.29
2018-10-04T22:48:38.300Z,72.41
2018-10-04T22:51:07.685Z,72.39
2018-10-04T22:53:36.756Z,72.32
2018-10-04T22:56:05.758Z,72.51
2018-10-04T22:58:34.512Z,72.38
2018-10-04T23:01:03.314Z,72.29
2018-10-04T23:03:32.180Z,72.51
2018-10-04T23:06:00.864Z,72.61
2018-10-04T23:08:29.541Z,72.79
2018-10-04T23:10:58.223Z,72.56
2018-10-04T23:13:26.875Z,72.61
2018-10-04T23:15:55.530Z,72.59
2018-10-04T23:18:24.179Z,73.24
2018-10-04T23:20:52.932Z,73.38
2018-10-04T23:23:21.505Z,73.70
2018-10-04T23:25:50.149Z,73.89
2018-10-04T23:28:18.904Z,74.09
2018-10-04T23:30:47.539Z,74.59
2018-10-04T23:33:16.161Z,74.80
2018-10-04T23:35:44.758Z,74.91
2018-10-04T23:38:13.407Z,74.77
2018-10-04T23:40:42.564Z,74.99
2018-10-04T23:43:11.336Z,75.14
2018-10-04T23:45:40.089Z,75.19
2018-10-04T23:48:08.797Z,75.75
2018-10-04T23:50:37.356Z,75.70
2018-10-04T23:53:06.168Z,75.78
2018-10-04T23:55:34.823Z,75.80
2018-10-04T23:58:04.075Z,76.13
